Time;durP1;ratioP1;P1;durP2;ratioP2;P2;SDS_P1;SDS_P2;PMS_P1;PMS_P2;Temp;Humidity;BMP_temperature;BMP_pressure;BME280_temperature;BME280_humidity;BME280_pressure;Samples;Min_cycle;Max_cycle;Signal;HPM_P1;HPM_P2
2021/12/23 00:01:03;;;;;;;11.13;6.30;;;;;7.60;101490.00;;;;5083815;28;20202;-82
2021/12/23 00:03:30;;;;;;;13.30;6.65;;;;;7.60;101492.00;;;;5074729;28;20209;-82
2021/12/23 00:05:57;;;;;;;10.50;7.05;;;;;7.60;101471.00;;;;5076962;28;20226;-82
2021/12/23 00:08:24;;;;;;;10.32;6.55;;;;;7.60;101452.00;;;;5089501;28;20190;-81
2021/12/23 00:10:52;;;;;;;11.20;7.03;;;;;7.60;101444.00;;;;5086742;28;20199;-82
2021/12/23 00:13:21;;;;;;;9.40;6.55;;;;;7.60;101448.00;;;;5071293;28;20219;-82
2021/12/23 00:16:03;;;;;;;9.32;6.68;;;;;7.60;101434.00;;;;5088134;28;20202;-82
2021/12/23 00:18:45;;;;;;;9.02;6.10;;;;;7.60;101447.00;;;;5090962;28;20209;-81
2021/12/23 00:24:01;;;;;;;9.18;6.13;;;;;7.60;101408.00;;;;5074549;28;20201;-82
2021/12/23 00:26:29;;;;;;;11.25;7.13;;;;;7.50;101408.00;;;;5089721;28;20247;-82
2021/12/23 00:28:58;;;;;;;11.13;6.72;;;;;7.50;101412.00;;;;5071262;28;20217;-82
2021/12/23 00:31:25;;;;;;;10.70;6.45;;;;;7.50;101392.00;;;;5072232;28;20649;-82
2021/12/23 00:33:52;;;;;;;10.80;6.40;;;;;7.50;101403.00;;;;5071575;28;20371;-82
2021/12/23 00:36:19;;;;;;;10.23;6.60;;;;;7.50;101388.00;;;;5088938;28;20201;-82
2021/12/23 00:38:51;;;;;;;9.55;6.60;;;;;7.50;101391.00;;;;5088732;28;20209;-82
2021/12/23 00:41:22;;;;;;;12.98;6.80;;;;;7.50;101375.00;;;;5070509;28;20191;-82
2021/12/23 00:43:49;;;;;;;10.27;6.65;;;;;7.50;101373.00;;;;5069955;28;20613;-82
2021/12/23 00:46:18;;;;;;;8.63;5.88;;;;;7.40;101377.00;;;;5072717;28;20194;-81
2021/12/23 00:48:45;;;;;;;10.40;6.85;;;;;7.50;101382.00;;;;5085861;28;20206;-82
2021/12/23 00:51:14;;;;;;;9.40;6.35;;;;;7.50;101384.00;;;;5074986;28;20510;-83
2021/12/23 00:53:41;;;;;;;10.07;6.53;;;;;7.40;101380.00;;;;5071782;28;20284;-82
2021/12/23 00:56:11;;;;;;;9.27;6.30;;;;;7.50;101379.00;;;;5075238;28;20292;-81
2021/12/23 00:58:39;;;;;;;11.68;7.13;;;;;7.50;101377.00;;;;5069707;28;20296;-81
2021/12/23 01:01:06;;;;;;;9.55;6.38;;;;;7.50;101375.00;;;;5074576;28;20191;-81
2021/12/23 01:03:35;;;;;;;11.98;7.40;;;;;7.50;101388.00;;;;5076162;28;20186;-81
2021/12/23 01:06:03;;;;;;;12.77;7.72;;;;;7.50;101399.00;;;;5089039;28;20233;-81
2021/12/23 01:08:31;;;;;;;11.55;7.30;;;;;7.50;101414.00;;;;5088955;28;20194;-81
2021/12/23 01:11:00;;;;;;;9.45;6.45;;;;;7.50;101395.00;;;;5087344;28;20226;-81
2021/12/23 01:13:29;;;;;;;12.18;7.18;;;;;7.50;101388.00;;;;5068492;28;20226;-81
2021/12/23 01:16:01;;;;;;;10.32;6.18;;;;;7.50;101388.00;;;;5068927;28;20675;-82
2021/12/23 01:18:31;;;;;;;12.48;6.68;;;;;7.50;101365.00;;;;5075706;28;20198;-82
2021/12/23 01:21:16;;;;;;;12.68;7.68;;;;;7.50;101370.00;;;;5069824;28;20203;-81
2021/12/23 01:23:46;;;;;;;10.13;6.93;;;;;7.50;101358.00;;;;5078626;28;20190;-81
2021/12/23 01:26:17;;;;;;;11.48;6.97;;;;;7.50;101356.00;;;;5089541;28;20601;-83
2021/12/23 01:28:46;;;;;;;11.02;6.90;;;;;7.50;101365.00;;;;5082201;28;20211;-83
2021/12/23 01:31:13;;;;;;;12.25;7.40;;;;;7.50;101352.00;;;;5070956;28;20206;-82
2021/12/23 01:33:41;;;;;;;9.85;6.78;;;;;7.50;101366.00;;;;5087446;28;20222;-83
2021/12/23 01:36:10;;;;;;;10.18;6.80;;;;;7.50;101348.00;;;;5087584;28;20194;-83
2021/12/23 01:38:37;;;;;;;10.88;6.88;;;;;7.50;101344.00;;;;5068642;28;20217;-83
2021/12/23 01:41:05;;;;;;;10.02;6.45;;;;;7.50;101328.00;;;;5068856;28;20195;-82
2021/12/23 01:43:32;;;;;;;12.43;7.30;;;;;7.50;101324.00;;;;5068127;28;20198;-82
2021/12/23 01:45:59;;;;;;;11.10;6.65;;;;;7.50;101325.00;;;;5067643;28;20218;-82
2021/12/23 01:48:27;;;;;;;10.45;6.95;;;;;7.50;101322.00;;;;5066694;28;20195;-82
2021/12/23 01:50:54;;;;;;;11.38;6.35;;;;;7.40;101306.00;;;;5067443;28;21501;-82
2021/12/23 01:53:23;;;;;;;12.57;7.05;;;;;7.40;101304.00;;;;5067827;28;20226;-82
2021/12/23 01:55:50;;;;;;;12.40;7.97;;;;;7.40;101315.00;;;;5067735;28;20203;-82
2021/12/23 01:58:18;;;;;;;12.48;7.18;;;;;7.40;101319.00;;;;5072893;28;20967;-82
2021/12/23 02:00:48;;;;;;;10.02;6.80;;;;;7.40;101326.00;;;;5067450;28;20661;-82
2021/12/23 02:03:16;;;;;;;9.60;6.47;;;;;7.40;101333.00;;;;5068980;28;20286;-82
2021/12/23 02:05:43;;;;;;;10.93;7.13;;;;;7.30;101327.00;;;;5067894;28;20199;-82
2021/12/23 02:08:11;;;;;;;13.00;7.30;;;;;7.30;101313.00;;;;5088046;28;20195;-82
2021/12/23 02:10:44;;;;;;;10.80;7.20;;;;;7.30;101313.00;;;;5087405;28;20221;-83
2021/12/23 02:13:11;;;;;;;9.18;6.90;;;;;7.30;101310.00;;;;5088873;28;20275;-82
2021/12/23 02:15:39;;;;;;;11.95;6.88;;;;;7.20;101296.00;;;;5086952;28;20210;-82
2021/12/23 02:18:06;;;;;;;12.43;7.20;;;;;7.20;101294.00;;;;5088036;28;20204;-82
2021/12/23 02:20:36;;;;;;;10.73;7.10;;;;;7.10;101283.00;;;;5074560;28;20210;-83
2021/12/23 02:23:04;;;;;;;10.10;6.78;;;;;7.10;101280.00;;;;5070251;28;20199;-82
2021/12/23 02:25:32;;;;;;;10.65;7.28;;;;;7.10;101280.00;;;;5076810;28;20201;-82
2021/12/23 02:28:04;;;;;;;11.63;7.53;;;;;7.10;101287.00;;;;5083605;28;20225;-82
2021/12/23 02:30:32;;;;;;;10.68;7.30;;;;;7.00;101298.00;;;;5067666;28;20726;-83
2021/12/23 02:32:59;;;;;;;10.57;7.22;;;;;7.00;101284.00;;;;5068283;28;20230;-82
2021/12/23 02:35:27;;;;;;;11.95;7.75;;;;;7.00;101281.00;;;;5086406;28;20194;-83
2021/12/23 02:37:56;;;;;;;11.73;7.63;;;;;6.90;101275.00;;;;5071697;28;20211;-82
2021/12/23 02:40:29;;;;;;;9.85;6.70;;;;;6.90;101265.00;;;;5067756;28;20199;-81
2021/12/23 02:42:58;;;;;;;11.15;6.32;;;;;6.90;101263.00;;;;5067483;28;20202;-82
2021/12/23 02:45:25;;;;;;;11.85;7.38;;;;;6.80;101266.00;;;;5067493;28;20198;-82
2021/12/23 02:47:53;;;;;;;11.65;7.32;;;;;6.80;101252.00;;;;5072085;28;20191;-80
2021/12/23 02:50:20;;;;;;;11.63;7.13;;;;;6.80;101237.00;;;;5087267;28;20210;-82
2021/12/23 02:52:47;;;;;;;14.23;7.20;;;;;6.80;101248.00;;;;5088144;28;20217;-83
2021/12/23 02:55:19;;;;;;;9.93;6.60;;;;;6.70;101244.00;;;;5068817;28;20203;-81
2021/12/23 02:57:46;;;;;;;13.43;7.35;;;;;6.70;101243.00;;;;5067093;28;20195;-81
2021/12/23 03:00:14;;;;;;;13.35;7.30;;;;;6.70;101236.00;;;;5068728;28;20195;-81
2021/12/23 03:02:42;;;;;;;12.13;7.60;;;;;6.60;101224.00;;;;5068780;28;20198;-81
2021/12/23 03:05:10;;;;;;;12.80;7.65;;;;;6.60;101220.00;;;;5086095;28;20233;-81
2021/12/23 03:07:38;;;;;;;12.00;7.40;;;;;6.60;101220.00;;;;5084600;28;20233;-82
2021/12/23 03:10:08;;;;;;;11.52;7.93;;;;;6.60;101216.00;;;;5073200;28;20191;-81
2021/12/23 03:12:37;;;;;;;12.90;7.13;;;;;6.60;101210.00;;;;5075014;28;20199;-81
2021/12/23 03:15:05;;;;;;;13.93;7.55;;;;;6.60;101205.00;;;;5067704;28;20211;-81
2021/12/23 03:17:33;;;;;;;11.40;7.20;;;;;6.60;101201.00;;;;5067288;28;20207;-81
2021/12/23 03:20:01;;;;;;;11.68;7.80;;;;;6.60;101191.00;;;;5067789;28;20198;-82
2021/12/23 03:22:28;;;;;;;12.10;7.50;;;;;6.60;101183.00;;;;5067469;28;20203;-81
2021/12/23 03:24:55;;;;;;;12.02;6.95;;;;;6.60;101181.00;;;;5067918;28;20203;-81
2021/12/23 03:27:23;;;;;;;14.00;8.05;;;;;6.60;101186.00;;;;5070795;28;20224;-81
2021/12/23 03:29:54;;;;;;;12.30;7.05;;;;;6.60;101202.00;;;;5077716;28;20187;-81
2021/12/23 03:32:21;;;;;;;14.70;8.70;;;;;6.60;101194.00;;;;5067865;28;20203;-81
2021/12/23 03:34:49;;;;;;;13.32;7.82;;;;;6.60;101181.00;;;;5080725;28;20621;-81
2021/12/23 03:37:16;;;;;;;16.48;8.95;;;;;6.60;101166.00;;;;5072036;28;20195;-81
2021/12/23 03:39:43;;;;;;;13.55;8.02;;;;;6.60;101166.00;;;;5077777;28;20283;-81
2021/12/23 03:42:11;;;;;;;14.15;8.55;;;;;6.60;101148.00;;;;5072497;28;20195;-81
2021/12/23 03:44:38;;;;;;;13.40;7.45;;;;;6.60;101152.00;;;;5083742;28;20194;-82
2021/12/23 03:47:07;;;;;;;15.48;7.85;;;;;6.60;101136.00;;;;5070850;28;20745;-81
2021/12/23 03:49:34;;;;;;;13.07;8.48;;;;;6.60;101135.00;;;;5077427;28;20212;-81
2021/12/23 03:52:01;;;;;;;14.90;8.23;;;;;6.60;101146.00;;;;5070788;28;20206;-81
2021/12/23 03:54:29;;;;;;;13.30;8.20;;;;;6.70;101144.00;;;;5070039;28;20237;-80
2021/12/23 03:56:56;;;;;;;12.98;7.82;;;;;6.70;101142.00;;;;5070613;28;20191;-81
2021/12/23 03:59:23;;;;;;;11.05;6.97;;;;;6.70;101150.00;;;;5070541;28;20199;-80
2021/12/23 04:01:50;;;;;;;13.15;7.72;;;;;6.70;101147.00;;;;5077923;28;20229;-81
2021/12/23 04:04:19;;;;;;;13.23;7.80;;;;;6.70;101142.00;;;;5091635;28;20594;-80
2021/12/23 04:06:46;;;;;;;13.43;8.02;;;;;6.70;101125.00;;;;5083424;28;20222;-80
2021/12/23 04:09:14;;;;;;;13.50;8.32;;;;;6.70;101119.00;;;;5070734;28;20199;-81
2021/12/23 04:11:41;;;;;;;12.52;7.47;;;;;6.70;101101.00;;;;5070615;28;20199;-80
2021/12/23 04:14:08;;;;;;;12.85;8.15;;;;;6.70;101102.00;;;;5082301;28;20219;-81
2021/12/23 04:16:36;;;;;;;11.85;7.75;;;;;6.70;101114.00;;;;5080070;28;20199;-81
2021/12/23 04:19:07;;;;;;;16.30;9.25;;;;;6.80;101133.00;;;;5070149;28;20244;-80
2021/12/23 04:21:35;;;;;;;13.45;8.00;;;;;6.80;101134.00;;;;5070673;28;20198;-81
2021/12/23 04:24:03;;;;;;;14.57;8.35;;;;;6.80;101158.00;;;;5076016;28;20195;-81
2021/12/23 04:26:30;;;;;;;13.98;8.13;;;;;6.80;101161.00;;;;5077886;28;20210;-81
2021/12/23 04:28:58;;;;;;;13.30;7.93;;;;;6.80;101159.00;;;;5070635;28;20213;-81
2021/12/23 04:31:26;;;;;;;14.70;8.55;;;;;6.80;101156.00;;;;5089779;28;20293;-81
2021/12/23 04:33:54;;;;;;;13.50;8.88;;;;;6.80;101150.00;;;;5089259;28;20241;-81
2021/12/23 04:36:24;;;;;;;12.50;7.97;;;;;6.80;101143.00;;;;5078921;28;20206;-81
2021/12/23 04:38:52;;;;;;;12.15;8.02;;;;;6.90;101139.00;;;;5070654;28;20214;-81
2021/12/23 04:41:20;;;;;;;11.80;7.55;;;;;6.90;101142.00;;;;5071431;28;20202;-81
2021/12/23 04:43:47;;;;;;;12.52;7.82;;;;;6.90;101159.00;;;;5087039;28;20198;-81
2021/12/23 04:46:14;;;;;;;11.63;7.57;;;;;6.90;101157.00;;;;5080330;28;20190;-81
2021/12/23 04:48:44;;;;;;;12.65;7.80;;;;;6.90;101164.00;;;;5089520;28;20202;-81
2021/12/23 04:51:13;;;;;;;13.38;7.38;;;;;7.00;101156.00;;;;5089952;28;20202;-81
2021/12/23 04:53:40;;;;;;;11.48;8.02;;;;;6.90;101135.00;;;;5075587;28;20243;-81
2021/12/23 04:56:09;;;;;;;12.73;8.63;;;;;7.00;101132.00;;;;5070399;28;20191;-81
2021/12/23 04:58:37;;;;;;;12.77;7.50;;;;;7.00;101127.00;;;;5077896;28;20194;-80
2021/12/23 05:01:06;;;;;;;15.15;8.75;;;;;7.00;101124.00;;;;5087801;28;20194;-81
2021/12/23 05:03:34;;;;;;;13.35;7.97;;;;;7.00;101114.00;;;;5080748;28;20646;-81
2021/12/23 05:06:01;;;;;;;14.70;9.23;;;;;7.00;101107.00;;;;5069747;28;20219;-81
2021/12/23 05:08:28;;;;;;;16.02;10.15;;;;;7.00;101125.00;;;;5068768;28;20206;-81
2021/12/23 05:10:55;;;;;;;15.18;9.60;;;;;7.00;101111.00;;;;5069553;28;20214;-81
2021/12/23 05:13:24;;;;;;;19.50;10.35;;;;;6.90;101107.00;;;;5068760;28;20195;-81
2021/12/23 05:15:51;;;;;;;17.05;10.30;;;;;6.90;101090.00;;;;5068357;28;20206;-80
2021/12/23 05:18:18;;;;;;;15.07;9.27;;;;;6.90;101091.00;;;;5069396;28;20195;-80
2021/12/23 05:20:48;;;;;;;16.70;10.02;;;;;6.90;101088.00;;;;5068638;28;20203;-81
2021/12/23 05:23:15;;;;;;;17.45;10.45;;;;;6.90;101085.00;;;;5067444;28;20207;-81
2021/12/23 05:25:42;;;;;;;14.60;9.07;;;;;6.90;101080.00;;;;5079563;28;20260;-81
2021/12/23 05:28:10;;;;;;;15.60;9.18;;;;;6.90;101073.00;;;;5073183;28;20202;-81
2021/12/23 05:30:39;;;;;;;18.00;9.93;;;;;6.90;101061.00;;;;5068552;28;20199;-81
2021/12/23 05:33:06;;;;;;;16.45;10.23;;;;;7.00;101069.00;;;;5069631;28;20206;-81
2021/12/23 05:35:34;;;;;;;15.52;9.07;;;;;7.00;101071.00;;;;5069465;28;20235;-81
2021/12/23 05:38:01;;;;;;;19.92;10.43;;;;;7.00;101061.00;;;;5077714;28;20209;-81
2021/12/23 05:40:29;;;;;;;14.35;8.93;;;;;7.00;101062.00;;;;5090043;28;20206;-81
2021/12/23 05:42:57;;;;;;;16.33;8.68;;;;;7.00;101056.00;;;;5075935;28;20666;-81
2021/12/23 05:45:25;;;;;;;13.57;8.52;;;;;7.10;101050.00;;;;5087258;28;20296;-83
2021/12/23 05:47:54;;;;;;;17.23;10.25;;;;;7.00;101040.00;;;;5076294;28;20557;-83
2021/12/23 05:50:24;;;;;;;16.92;9.68;;;;;7.10;101051.00;;;;5070209;28;20198;-82
2021/12/23 05:52:53;;;;;;;17.88;10.02;;;;;7.10;101053.00;;;;5074120;28;20222;-84
2021/12/23 05:55:21;;;;;;;14.02;8.68;;;;;7.10;101064.00;;;;5076945;28;20218;-83
2021/12/23 05:57:49;;;;;;;16.73;10.07;;;;;7.10;101049.00;;;;5072871;28;20198;-83
2021/12/23 06:00:19;;;;;;;16.83;9.40;;;;;7.10;101029.00;;;;5082278;28;20213;-82
2021/12/23 06:02:47;;;;;;;17.38;9.93;;;;;7.10;101007.00;;;;5075697;28;20191;-84
2021/12/23 06:05:16;;;;;;;16.33;9.98;;;;;7.10;101013.00;;;;5080767;28;20205;-84
2021/12/23 06:07:44;;;;;;;15.95;9.18;;;;;7.10;101007.00;;;;5070386;28;20493;-83
2021/12/23 06:10:12;;;;;;;17.02;9.70;;;;;7.10;101006.00;;;;5075596;28;20199;-84
2021/12/23 06:12:40;;;;;;;19.77;10.68;;;;;7.20;101013.00;;;;5077384;28;20247;-83
2021/12/23 06:15:08;;;;;;;15.43;9.40;;;;;7.20;101028.00;;;;5069221;28;20615;-84
2021/12/23 06:17:36;;;;;;;17.13;9.98;;;;;7.20;101029.00;;;;5080118;28;20198;-83
2021/12/23 06:20:06;;;;;;;16.77;9.82;;;;;7.20;101042.00;;;;5070889;28;20210;-83
2021/12/23 06:22:36;;;;;;;16.63;9.52;;;;;7.20;101043.00;;;;5078820;28;20199;-84
2021/12/23 06:25:04;;;;;;;17.70;10.30;;;;;7.20;101043.00;;;;5079539;28;20202;-82
2021/12/23 06:27:32;;;;;;;16.45;9.85;;;;;7.20;101041.00;;;;5072887;28;20519;-83
2021/12/23 06:29:59;;;;;;;19.70;11.55;;;;;7.20;101026.00;;;;5074254;28;20202;-83
2021/12/23 06:32:27;;;;;;;18.13;9.98;;;;;7.20;101026.00;;;;5074441;28;20754;-84
2021/12/23 06:34:54;;;;;;;16.38;9.98;;;;;7.30;101021.00;;;;5077917;28;20225;-83
2021/12/23 06:37:21;;;;;;;16.75;10.52;;;;;7.30;101021.00;;;;5070935;28;20217;-83
2021/12/23 06:39:50;;;;;;;19.30;11.13;;;;;7.30;101026.00;;;;5077461;28;20663;-83
2021/12/23 06:42:18;;;;;;;15.48;9.65;;;;;7.30;101040.00;;;;5075012;28;20199;-83
2021/12/23 06:44:45;;;;;;;17.63;10.38;;;;;7.30;101029.00;;;;5075139;28;20198;-80
2021/12/23 06:47:12;;;;;;;20.00;11.35;;;;;7.40;101031.00;;;;5082834;28;20235;-80
2021/12/23 06:49:39;;;;;;;21.83;11.07;;;;;7.40;101032.00;;;;5074442;28;20706;-80
2021/12/23 06:52:07;;;;;;;18.40;9.98;;;;;7.40;101034.00;;;;5074066;28;20201;-80
2021/12/23 06:54:37;;;;;;;18.27;10.23;;;;;7.40;101039.00;;;;5070903;28;20233;-80
2021/12/23 06:57:06;;;;;;;18.58;11.73;;;;;7.40;101034.00;;;;5077124;28;20310;-80
2021/12/23 06:59:33;;;;;;;19.35;10.55;;;;;7.40;101034.00;;;;5072442;28;20198;-80
2021/12/23 07:02:00;;;;;;;19.20;9.00;;;;;7.40;101024.00;;;;5076177;28;20282;-79
2021/12/23 07:04:31;;;;;;;19.33;10.57;;;;;7.50;101025.00;;;;5071765;28;20230;-79
2021/12/23 07:07:08;;;;;;;16.40;9.90;;;;;7.50;101029.00;;;;5078605;28;20300;-80
2021/12/23 07:09:36;;;;;;;21.48;10.80;;;;;7.50;101026.00;;;;5078213;28;20609;-80
2021/12/23 07:12:05;;;;;;;18.95;10.75;;;;;7.50;101029.00;;;;5077747;28;20195;-81
2021/12/23 07:14:33;;;;;;;20.98;10.68;;;;;7.50;101030.00;;;;5073538;28;20264;-81
2021/12/23 07:17:00;;;;;;;18.35;9.43;;;;;7.50;101033.00;;;;5080722;28;20218;-80
2021/12/23 07:19:27;;;;;;;21.40;12.25;;;;;7.50;101033.00;;;;5081978;28;20198;-81
2021/12/23 07:21:55;;;;;;;21.27;10.77;;;;;7.60;101010.00;;;;5080595;28;20621;-81
2021/12/23 07:24:22;;;;;;;17.25;9.50;;;;;7.50;101010.00;;;;5076194;28;20202;-80
2021/12/23 07:26:50;;;;;;;21.45;11.82;;;;;7.50;101015.00;;;;5073340;28;20195;-79
2021/12/23 07:29:18;;;;;;;25.05;12.45;;;;;7.60;101021.00;;;;5086337;28;20219;-81
2021/12/23 07:31:45;;;;;;;22.10;12.10;;;;;7.60;101008.00;;;;5070290;28;20485;-80
2021/12/23 07:34:13;;;;;;;20.60;11.35;;;;;7.60;101010.00;;;;5078043;28;20202;-81
2021/12/23 07:36:42;;;;;;;20.70;10.93;;;;;7.60;101011.00;;;;5075218;28;20393;-82
2021/12/23 07:39:10;;;;;;;25.30;12.93;;;;;7.60;101010.00;;;;5074467;28;20199;-81
2021/12/23 07:41:37;;;;;;;21.58;10.70;;;;;7.60;101010.00;;;;5076115;28;20187;-81
2021/12/23 07:44:07;;;;;;;20.23;11.20;;;;;7.60;101008.00;;;;5081955;28;20205;-81
2021/12/23 07:46:37;;;;;;;22.23;11.48;;;;;7.60;101011.00;;;;5076350;28;20198;-80
2021/12/23 07:49:06;;;;;;;18.83;10.43;;;;;7.60;101015.00;;;;5081915;28;20209;-79
2021/12/23 07:51:34;;;;;;;21.63;11.43;;;;;7.60;101013.00;;;;5068563;28;20190;-79
2021/12/23 07:54:01;;;;;;;22.23;11.35;;;;;7.60;101010.00;;;;5070444;28;20268;-80
2021/12/23 07:56:28;;;;;;;18.58;10.63;;;;;7.60;101011.00;;;;5070376;28;20242;-79
2021/12/23 07:58:55;;;;;;;22.08;12.35;;;;;7.60;101022.00;;;;5069704;28;20661;-80
2021/12/23 08:01:23;;;;;;;22.15;11.13;;;;;7.60;101019.00;;;;5070702;28;20202;-80
2021/12/23 08:03:51;;;;;;;23.13;11.90;;;;;7.60;101018.00;;;;5080160;28;20201;-79
2021/12/23 08:06:19;;;;;;;21.38;11.25;;;;;7.60;101003.00;;;;5090224;28;20229;-80
2021/12/23 08:08:46;;;;;;;22.85;11.43;;;;;7.70;101005.00;;;;5078953;28;20244;-79
2021/12/23 08:11:13;;;;;;;21.05;10.85;;;;;7.70;100995.00;;;;5071927;28;20203;-79
2021/12/23 08:13:41;;;;;;;19.30;11.15;;;;;7.70;100975.00;;;;5090622;28;20206;-80
2021/12/23 08:16:08;;;;;;;24.05;11.73;;;;;7.70;100973.00;;;;5084841;28;20234;-80
2021/12/23 08:18:35;;;;;;;19.70;11.15;;;;;7.70;100979.00;;;;5079913;28;20615;-80
2021/12/23 08:21:04;;;;;;;23.15;11.57;;;;;7.70;100971.00;;;;5079881;28;20198;-81
2021/12/23 08:23:31;;;;;;;21.58;11.02;;;;;7.70;100967.00;;;;5078620;28;20190;-82
2021/12/23 08:26:02;;;;;;;19.70;10.93;;;;;7.70;100968.00;;;;5088905;28;20198;-81
2021/12/23 08:28:30;;;;;;;19.73;10.50;;;;;7.70;100974.00;;;;5072402;28;20195;-78
2021/12/23 08:30:57;;;;;;;21.80;10.95;;;;;7.70;100964.00;;;;5070701;28;20770;-78
2021/12/23 08:33:25;;;;;;;18.75;10.45;;;;;7.70;100969.00;;;;5076415;28;21085;-78
2021/12/23 08:35:52;;;;;;;21.88;11.05;;;;;7.80;100945.00;;;;5077704;28;20688;-78
2021/12/23 08:38:22;;;;;;;17.67;10.63;;;;;7.80;100928.00;;;;5077167;28;20191;-79
2021/12/23 08:40:49;;;;;;;18.98;10.32;;;;;7.80;100928.00;;;;5083598;28;20199;-79
2021/12/23 08:43:16;;;;;;;18.55;10.93;;;;;7.80;100914.00;;;;5080224;28;20195;-80
2021/12/23 08:45:43;;;;;;;21.90;10.57;;;;;7.80;100918.00;;;;5080952;28;20218;-79
2021/12/23 08:48:11;;;;;;;20.38;11.25;;;;;7.80;100912.00;;;;5080008;28;20648;-79
2021/12/23 08:50:38;;;;;;;23.05;12.30;;;;;7.80;100909.00;;;;5076652;28;20194;-78
2021/12/23 08:53:05;;;;;;;20.05;11.68;;;;;7.90;100912.00;;;;5076450;28;20218;-79
2021/12/23 08:55:34;;;;;;;21.38;10.88;;;;;7.80;100898.00;;;;5072595;28;20227;-79
2021/12/23 08:58:04;;;;;;;21.17;12.25;;;;;7.90;100909.00;;;;5076545;28;20199;-80
2021/12/23 09:00:33;;;;;;;20.60;10.20;;;;;7.90;100912.00;;;;5069010;28;20199;-80
2021/12/23 09:03:01;;;;;;;20.95;10.13;;;;;7.90;100905.00;;;;5070459;28;20199;-80
2021/12/23 09:05:28;;;;;;;21.60;12.07;;;;;7.90;100909.00;;;;5078315;28;20207;-81
2021/12/23 09:07:56;;;;;;;17.95;10.77;;;;;7.90;100895.00;;;;5083706;28;20209;-82
2021/12/23 09:10:24;;;;;;;20.33;10.63;;;;;7.90;100895.00;;;;5081639;28;20191;-80
2021/12/23 09:12:54;;;;;;;18.88;11.07;;;;;7.90;100877.00;;;;5069897;28;20210;-81
2021/12/23 09:15:34;;;;;;;16.50;10.20;;;;;7.90;100885.00;;;;5081353;28;20233;-80
2021/12/23 09:18:01;;;;;;;18.80;10.52;;;;;8.00;100881.00;;;;5080073;28;20713;-80
2021/12/23 09:20:38;;;;;;;19.92;11.30;;;;;7.90;100879.00;;;;5081296;28;20194;-79
2021/12/23 09:23:07;;;;;;;19.60;10.75;;;;;8.00;100882.00;;;;5081596;28;20206;-80
2021/12/23 09:25:35;;;;;;;20.25;10.25;;;;;8.00;100862.00;;;;5076236;28;20267;-80
2021/12/23 09:28:08;;;;;;;18.40;10.45;;;;;8.00;100870.00;;;;5085543;28;20664;-80
2021/12/23 09:33:24;;;;;;;20.33;11.48;;;;;8.00;100872.00;;;;5081697;28;20243;-80
2021/12/23 09:35:51;;;;;;;18.27;10.80;;;;;8.10;100870.00;;;;5084541;28;20257;-80
2021/12/23 09:38:26;;;;;;;20.73;11.52;;;;;8.10;100857.00;;;;5075725;28;20948;-79
2021/12/23 09:40:59;;;;;;;20.30;10.73;;;;;8.10;100865.00;;;;5078995;28;20294;-80
2021/12/23 09:43:30;;;;;;;18.60;10.50;;;;;8.20;100854.00;;;;5080074;28;20214;-79
2021/12/23 09:45:57;;;;;;;19.30;9.93;;;;;8.20;100852.00;;;;5070940;28;20191;-80
2021/12/23 09:48:27;;;;;;;21.45;11.68;;;;;8.30;100869.00;;;;5080288;28;20202;-80
2021/12/23 09:50:55;;;;;;;21.15;11.38;;;;;8.30;100866.00;;;;5074662;28;20216;-80
2021/12/23 09:53:24;;;;;;;20.58;10.68;;;;;8.30;100858.00;;;;5076176;28;20712;-78
2021/12/23 09:55:53;;;;;;;20.60;10.52;;;;;8.30;100853.00;;;;5079301;28;20236;-78
2021/12/23 09:58:21;;;;;;;19.00;11.45;;;;;8.40;100844.00;;;;5083346;28;20574;-78
2021/12/23 10:00:50;;;;;;;20.70;11.13;;;;;8.40;100836.00;;;;5081552;28;20204;-78
2021/12/23 10:03:20;;;;;;;19.67;10.80;;;;;8.40;100844.00;;;;5084205;28;20206;-80
2021/12/23 10:05:48;;;;;;;17.42;9.57;;;;;8.50;100849.00;;;;5071991;28;20190;-81
2021/12/23 10:08:17;;;;;;;21.13;10.55;;;;;8.50;100845.00;;;;5073963;28;20222;-78
2021/12/23 10:10:49;;;;;;;21.52;11.40;;;;;8.60;100833.00;;;;5080929;28;20194;-78
2021/12/23 10:38:37;;;;;;;19.95;11.48;;;;;8.80;100790.00;;;;5070588;28;20202;-80
2021/12/23 10:41:08;;;;;;;23.70;12.15;;;;;8.80;100782.00;;;;5077321;28;20194;-78
2021/12/23 10:43:37;;;;;;;22.33;11.27;;;;;8.90;100787.00;;;;5086353;28;20281;-78
2021/12/23 10:46:07;;;;;;;19.33;10.25;;;;;8.90;100783.00;;;;5074264;28;20199;-79
2021/12/23 10:48:46;;;;;;;21.17;11.27;;;;;8.90;100780.00;;;;5068053;28;20199;-79
2021/12/23 10:51:17;;;;;;;19.38;10.00;;;;;9.00;100770.00;;;;5087001;28;20308;-79
2021/12/23 10:53:53;;;;;;;18.73;10.70;;;;;9.00;100763.00;;;;5080138;28;20207;-80
2021/12/23 10:59:15;;;;;;;19.60;11.35;;;;;9.00;100752.00;;;;5068163;28;20224;-81
2021/12/23 11:02:04;;;;;;;19.92;9.85;;;;;9.00;100752.00;;;;5067293;28;20199;-80
2021/12/23 11:04:37;;;;;;;20.92;10.88;;;;;9.10;100744.00;;;;5067012;28;20223;-80
2021/12/23 11:07:15;;;;;;;24.25;11.52;;;;;9.10;100737.00;;;;5071788;28;20218;-81
2021/12/23 11:10:02;;;;;;;22.15;10.48;;;;;9.10;100737.00;;;;5088132;28;20540;-80
2021/12/23 11:30:08;;;;;;;19.92;10.70;;;;;9.40;100719.00;;;;5069007;28;20617;-81
2021/12/23 11:35:50;;;;;;;18.17;9.55;;;;;9.40;100717.00;;;;4987188;28;20384;-80
2021/12/23 11:38:29;;;;;;;18.10;10.05;;;;;9.50;100709.00;;;;5058792;28;20198;-80
2021/12/23 11:41:03;;;;;;;19.33;10.02;;;;;9.50;100708.00;;;;5068585;28;20645;-80
2021/12/23 11:46:31;;;;;;;18.55;9.95;;;;;9.60;100699.00;;;;5106364;27;21156;-80
2021/12/23 11:49:02;;;;;;;19.13;10.45;;;;;9.70;100700.00;;;;5106145;28;20182;-79
2021/12/23 11:51:31;;;;;;;17.40;9.38;;;;;9.70;100688.00;;;;5107011;28;20212;-78
2021/12/23 11:53:59;;;;;;;20.77;10.32;;;;;9.80;100683.00;;;;5106829;28;20262;-79
2021/12/23 11:56:27;;;;;;;19.30;10.57;;;;;9.80;100662.00;;;;5106439;28;20587;-79
2021/12/23 11:58:58;;;;;;;18.60;10.35;;;;;9.90;100662.00;;;;5090511;28;20210;-80
2021/12/23 12:01:30;;;;;;;20.85;11.05;;;;;9.90;100651.00;;;;5085217;28;20236;-82
2021/12/23 12:04:03;;;;;;;18.20;10.48;;;;;9.90;100655.00;;;;5085700;28;20206;-80
2021/12/23 12:06:37;;;;;;;19.15;9.75;;;;;10.00;100649.00;;;;5084467;28;20201;-80
2021/12/23 12:09:13;;;;;;;18.90;10.55;;;;;10.00;100638.00;;;;5103543;28;20198;-78
2021/12/23 12:11:41;;;;;;;17.88;9.98;;;;;10.10;100630.00;;;;5097474;28;20209;-78
2021/12/23 12:14:41;;;;;;;18.58;10.23;;;;;10.00;100619.00;;;;5086539;28;20205;-78
2021/12/23 12:17:49;;;;;;;17.27;9.18;;;;;10.10;100605.00;;;;5105535;28;20216;-78
2021/12/23 12:20:36;;;;;;;20.13;10.60;;;;;10.10;100596.00;;;;5091986;28;20289;-78
2021/12/23 12:23:11;;;;;;;17.20;10.05;;;;;10.20;100586.00;;;;5084584;28;20198;-80
2021/12/23 12:26:01;;;;;;;17.42;9.70;;;;;10.10;100592.00;;;;5084681;28;20226;-79
2021/12/23 12:28:44;;;;;;;16.33;9.40;;;;;10.30;100593.00;;;;5080376;28;20186;-79
2021/12/23 12:31:20;;;;;;;18.92;10.32;;;;;10.30;100593.00;;;;5086934;28;20203;-79
2021/12/23 12:33:59;;;;;;;16.75;9.77;;;;;10.30;100581.00;;;;5105967;28;20193;-79
2021/12/23 12:36:28;;;;;;;18.45;10.32;;;;;10.40;100586.00;;;;5105603;28;20205;-80
2021/12/23 12:39:14;;;;;;;19.40;11.65;;;;;10.50;100582.00;;;;5106141;28;20205;-80
2021/12/23 12:41:41;;;;;;;16.98;9.95;;;;;10.50;100573.00;;;;5097386;28;20225;-80
2021/12/23 12:44:14;;;;;;;18.30;10.27;;;;;10.60;100569.00;;;;5089192;28;20195;-80
2021/12/23 12:47:10;;;;;;;19.50;10.85;;;;;10.50;100558.00;;;;5098627;28;20258;-80
2021/12/23 12:49:41;;;;;;;19.67;9.98;;;;;10.70;100541.00;;;;5090482;28;20572;-81
2021/12/23 12:52:34;;;;;;;19.20;10.93;;;;;10.60;100546.00;;;;5085214;28;20195;-80
2021/12/23 12:55:05;;;;;;;18.10;9.95;;;;;10.70;100544.00;;;;5092088;28;20205;-80
2021/12/23 12:57:36;;;;;;;16.48;9.18;;;;;10.80;100545.00;;;;5092646;28;20668;-80
2021/12/23 13:00:21;;;;;;;19.67;10.75;;;;;10.70;100551.00;;;;5091156;28;20206;-81
2021/12/23 13:02:52;;;;;;;17.98;9.13;;;;;10.80;100549.00;;;;5091853;28;20951;-80
2021/12/23 13:05:27;;;;;;;20.33;11.20;;;;;10.80;100555.00;;;;5090971;28;20226;-80
2021/12/23 13:07:56;;;;;;;18.55;9.88;;;;;10.90;100554.00;;;;5082381;28;20250;-81
2021/12/23 13:10:32;;;;;;;19.13;10.75;;;;;10.90;100545.00;;;;5071664;28;20203;-81
2021/12/23 13:13:01;;;;;;;19.45;10.32;;;;;10.90;100548.00;;;;5090473;28;20243;-81